sensor_id;sensor_type;location;lat;lon;timestamp;temperature;humidity
20504;DHT22;10410;51.046;6.980;2024-01-15T00:01:09;1.10;99.90
20504;DHT22;10410;51.046;6.980;2024-01-15T00:08:09;1.20;99.90
20504;DHT22;10410;51.046;6.980;2024-01-15T00:15:09;1.10;99.90
20504;DHT22;10410;51.046;6.980;2024-01-15T00:22:10;1.00;99.90
20504;DHT22;10410;51.046;6.980;2024-01-15T00:29:11;1.00;99.90
20504;DHT22;10410;51.046;6.980;2024-01-15T00:36:11;0.90;99.90
20504;DHT22;10410;51.046;6.980;2024-01-15T00:43:12;0.80;99.90
20504;DHT22;10410;51.046;6.980;2024-01-15T00:50:13;0.70;99.90
20504;DHT22;10410;51.046;6.980;2024-01-15T00:57:13;0.60;99.90
20504;DHT22;10410;51.046;6.980;2024-01-15T01:04:14;0.60;99.90
20504;DHT22;10410;51.046;6.980;2024-01-15T01:11:15;0.60;99.90
20504;DHT22;10410;51.046;6.980;2024-01-15T01:18:16;0.70;99.90
20504;DHT22;10410;51.046;6.980;2024-01-15T01:25:16;0.70;99.90
20504;DHT22;10410;51.046;6.980;2024-01-15T01:32:17;0.70;99.90
20504;DHT22;10410;51.046;6.980;2024-01-15T01:39:17;0.70;99.90
20504;DHT22;10410;51.046;6.980;2024-01-15T01:46:18;0.80;99.90
20504;DHT22;10410;51.046;6.980;2024-01-15T01:53:18;0.80;99.90
20504;DHT22;10410;51.046;6.980;2024-01-15T02:00:19;0.90;99.90
20504;DHT22;10410;51.046;6.980;2024-01-15T02:07:20;0.90;99.90
20504;DHT22;10410;51.046;6.980;2024-01-15T02:14:21;0.90;99.90
20504;DHT22;10410;51.046;6.980;2024-01-15T02:21:22;0.90;99.90
20504;DHT22;10410;51.046;6.980;2024-01-15T02:28:23;1.00;99.90
20504;DHT22;10410;51.046;6.980;2024-01-15T02:35:23;1.10;99.90
20504;DHT22;10410;51.046;6.980;2024-01-15T02:42:26;1.00;99.90
20504;DHT22;10410;51.046;6.980;2024-01-15T02:49:26;1.10;99.90
20504;DHT22;10410;51.046;6.980;2024-01-15T02:56:27;1.10;99.90
20504;DHT22;10410;51.046;6.980;2024-01-15T03:03:27;1.10;99.90
20504;DHT22;10410;51.046;6.980;2024-01-15T03:10:28;1.10;99.90
20504;DHT22;10410;51.046;6.980;2024-01-15T03:17:28;1.20;99.90
20504;DHT22;10410;51.046;6.980;2024-01-15T03:24:29;1.20;99.90
20504;DHT22;10410;51.046;6.980;2024-01-15T03:31:30;1.20;99.90
20504;DHT22;10410;51.046;6.980;2024-01-15T03:38:30;1.20;99.90
20504;DHT22;10410;51.046;6.980;2024-01-15T03:45:31;1.20;99.90
20504;DHT22;10410;51.046;6.980;2024-01-15T03:52:31;1.20;99.90
20504;DHT22;10410;51.046;6.980;2024-01-15T03:59:32;1.20;99.90
20504;DHT22;10410;51.046;6.980;2024-01-15T04:06:32;1.20;99.90
20504;DHT22;10410;51.046;6.980;2024-01-15T04:13:33;1.20;99.90
20504;DHT22;10410;51.046;6.980;2024-01-15T04:20:34;1.20;99.90
20504;DHT22;10410;51.046;6.980;2024-01-15T04:27:34;1.30;99.90
20504;DHT22;10410;51.046;6.980;2024-01-15T04:34:34;1.30;99.90
20504;DHT22;10410;51.046;6.980;2024-01-15T04:41:35;1.30;99.90
20504;DHT22;10410;51.046;6.980;2024-01-15T04:48:36;1.30;99.90
20504;DHT22;10410;51.046;6.980;2024-01-15T04:55:36;1.30;99.90
20504;DHT22;10410;51.046;6.980;2024-01-15T05:02:36;1.40;99.90
20504;DHT22;10410;51.046;6.980;2024-01-15T05:09:37;1.40;99.90
20504;DHT22;10410;51.046;6.980;2024-01-15T05:16:47;1.30;99.90
20504;DHT22;10410;51.046;6.980;2024-01-15T05:23:48;1.40;99.90
20504;DHT22;10410;51.046;6.980;2024-01-15T05:30:48;1.40;99.90
20504;DHT22;10410;51.046;6.980;2024-01-15T05:37:50;1.40;99.90
20504;DHT22;10410;51.046;6.980;2024-01-15T05:44:51;1.40;99.90
20504;DHT22;10410;51.046;6.980;2024-01-15T05:51:52;1.40;99.90
20504;DHT22;10410;51.046;6.980;2024-01-15T05:58:52;1.40;99.90
20504;DHT22;10410;51.046;6.980;2024-01-15T06:05:52;1.40;99.90
20504;DHT22;10410;51.046;6.980;2024-01-15T06:12:53;1.40;99.90
20504;DHT22;10410;51.046;6.980;2024-01-15T06:19:53;1.40;99.90
20504;DHT22;10410;51.046;6.980;2024-01-15T06:26:54;1.50;99.90
20504;DHT22;10410;51.046;6.980;2024-01-15T06:33:55;1.50;99.90
20504;DHT22;10410;51.046;6.980;2024-01-15T06:40:56;1.50;99.90
20504;DHT22;10410;51.046;6.980;2024-01-15T06:47:56;1.60;99.90
20504;DHT22;10410;51.046;6.980;2024-01-15T06:54:57;1.60;99.90
20504;DHT22;10410;51.046;6.980;2024-01-15T07:01:57;1.60;99.90
20504;DHT22;10410;51.046;6.980;2024-01-15T07:08:57;1.50;99.90
20504;DHT22;10410;51.046;6.980;2024-01-15T07:15:58;1.50;99.90
20504;DHT22;10410;51.046;6.980;2024-01-15T07:22:59;1.40;99.90
20504;DHT22;10410;51.046;6.980;2024-01-15T07:29:59;1.50;99.90
20504;DHT22;10410;51.046;6.980;2024-01-15T07:37:02;1.50;99.90
20504;DHT22;10410;51.046;6.980;2024-01-15T07:44:03;1.50;99.90
20504;DHT22;10410;51.046;6.980;2024-01-15T07:51:04;1.50;99.90
20504;DHT22;10410;51.046;6.980;2024-01-15T07:58:04;1.60;99.90
20504;DHT22;10410;51.046;6.980;2024-01-15T08:05:15;1.60;99.90
20504;DHT22;10410;51.046;6.980;2024-01-15T08:12:16;1.60;99.90
20504;DHT22;10410;51.046;6.980;2024-01-15T08:19:16;1.70;99.90
20504;DHT22;10410;51.046;6.980;2024-01-15T08:26:17;1.70;99.90
20504;DHT22;10410;51.046;6.980;2024-01-15T08:33:17;1.70;99.90
20504;DHT22;10410;51.046;6.980;2024-01-15T08:40:21;1.80;99.90
20504;DHT22;10410;51.046;6.980;2024-01-15T08:47:22;1.80;99.90
20504;DHT22;10410;51.046;6.980;2024-01-15T08:54:22;1.70;99.90
20504;DHT22;10410;51.046;6.980;2024-01-15T09:01:23;1.60;99.90
20504;DHT22;10410;51.046;6.980;2024-01-15T09:08:24;1.50;99.90
20504;DHT22;10410;51.046;6.980;2024-01-15T09:15:25;1.30;99.90
20504;DHT22;10410;51.046;6.980;2024-01-15T09:22:25;1.20;99.90
20504;DHT22;10410;51.046;6.980;2024-01-15T09:29:26;1.10;99.90
20504;DHT22;10410;51.046;6.980;2024-01-15T09:36:26;1.10;99.90
20504;DHT22;10410;51.046;6.980;2024-01-15T09:43:27;1.10;99.90
20504;DHT22;10410;51.046;6.980;2024-01-15T09:50:27;1.10;99.90
20504;DHT22;10410;51.046;6.980;2024-01-15T09:57:28;1.10;99.90
20504;DHT22;10410;51.046;6.980;2024-01-15T10:04:28;1.10;99.90
20504;DHT22;10410;51.046;6.980;2024-01-15T10:11:30;1.00;99.90
20504;DHT22;10410;51.046;6.980;2024-01-15T10:18:31;1.00;99.90
20504;DHT22;10410;51.046;6.980;2024-01-15T10:25:32;1.10;99.90
20504;DHT22;10410;51.046;6.980;2024-01-15T10:32:33;1.10;99.90
20504;DHT22;10410;51.046;6.980;2024-01-15T10:39:33;1.10;99.90
20504;DHT22;10410;51.046;6.980;2024-01-15T10:46:35;1.00;99.90
20504;DHT22;10410;51.046;6.980;2024-01-15T10:53:37;1.10;99.90
20504;DHT22;10410;51.046;6.980;2024-01-15T11:00:38;1.10;99.90
20504;DHT22;10410;51.046;6.980;2024-01-15T11:07:40;1.10;99.90
20504;DHT22;10410;51.046;6.980;2024-01-15T11:14:45;1.20;99.90
20504;DHT22;10410;51.046;6.980;2024-01-15T11:21:46;1.20;99.90
20504;DHT22;10410;51.046;6.980;2024-01-15T11:28:49;1.30;99.90
20504;DHT22;10410;51.046;6.980;2024-01-15T11:35:50;1.30;99.90
20504;DHT22;10410;51.046;6.980;2024-01-15T11:42:51;1.50;99.90
20504;DHT22;10410;51.046;6.980;2024-01-15T11:50:03;1.50;99.90
20504;DHT22;10410;51.046;6.980;2024-01-15T11:57:12;1.60;99.90
20504;DHT22;10410;51.046;6.980;2024-01-15T12:04:20;1.60;99.90
20504;DHT22;10410;51.046;6.980;2024-01-15T12:11:23;1.70;99.90
20504;DHT22;10410;51.046;6.980;2024-01-15T12:18:25;1.70;99.90
20504;DHT22;10410;51.046;6.980;2024-01-15T12:25:26;1.90;99.90
20504;DHT22;10410;51.046;6.980;2024-01-15T12:32:29;2.10;99.90
20504;DHT22;10410;51.046;6.980;2024-01-15T12:39:29;2.30;99.90
20504;DHT22;10410;51.046;6.980;2024-01-15T12:46:30;2.40;99.90
20504;DHT22;10410;51.046;6.980;2024-01-15T12:53:31;2.10;99.90
20504;DHT22;10410;51.046;6.980;2024-01-15T13:00:32;2.10;99.90
20504;DHT22;10410;51.046;6.980;2024-01-15T13:07:32;2.00;99.90
20504;DHT22;10410;51.046;6.980;2024-01-15T13:14:33;2.00;99.90
20504;DHT22;10410;51.046;6.980;2024-01-15T13:21:34;2.10;99.90
20504;DHT22;10410;51.046;6.980;2024-01-15T13:28:35;2.10;99.90
20504;DHT22;10410;51.046;6.980;2024-01-15T13:35:35;2.10;99.90
20504;DHT22;10410;51.046;6.980;2024-01-15T13:42:36;2.10;99.90
20504;DHT22;10410;51.046;6.980;2024-01-15T13:49:39;2.10;99.90
20504;DHT22;10410;51.046;6.980;2024-01-15T13:56:40;2.10;99.90
20504;DHT22;10410;51.046;6.980;2024-01-15T14:03:41;2.00;99.90
20504;DHT22;10410;51.046;6.980;2024-01-15T14:10:42;1.90;99.90
20504;DHT22;10410;51.046;6.980;2024-01-15T14:17:42;1.80;99.90
20504;DHT22;10410;51.046;6.980;2024-01-15T14:24:43;1.70;99.90
20504;DHT22;10410;51.046;6.980;2024-01-15T14:31:44;1.70;99.90
20504;DHT22;10410;51.046;6.980;2024-01-15T14:38:44;1.60;99.90
20504;DHT22;10410;51.046;6.980;2024-01-15T14:45:44;1.70;99.90
20504;DHT22;10410;51.046;6.980;2024-01-15T14:52:46;1.70;99.90
20504;DHT22;10410;51.046;6.980;2024-01-15T14:59:47;1.70;99.90
20504;DHT22;10410;51.046;6.980;2024-01-15T15:06:48;1.80;99.90
20504;DHT22;10410;51.046;6.980;2024-01-15T15:13:48;1.70;99.90
20504;DHT22;10410;51.046;6.980;2024-01-15T15:20:50;1.70;99.90
20504;DHT22;10410;51.046;6.980;2024-01-15T15:27:50;1.60;99.90
20504;DHT22;10410;51.046;6.980;2024-01-15T15:34:51;1.60;99.90
20504;DHT22;10410;51.046;6.980;2024-01-15T15:41:51;1.60;99.90
20504;DHT22;10410;51.046;6.980;2024-01-15T15:48:52;1.40;99.90
20504;DHT22;10410;51.046;6.980;2024-01-15T15:55:52;1.30;99.90
20504;DHT22;10410;51.046;6.980;2024-01-15T16:02:53;1.20;99.90
20504;DHT22;10410;51.046;6.980;2024-01-15T16:09:57;1.10;99.90
20504;DHT22;10410;51.046;6.980;2024-01-15T16:16:57;1.00;99.90
20504;DHT22;10410;51.046;6.980;2024-01-15T16:24:21;1.00;99.90
20504;DHT22;10410;51.046;6.980;2024-01-15T16:31:41;1.00;99.90
20504;DHT22;10410;51.046;6.980;2024-01-15T16:38:41;1.00;99.90
20504;DHT22;10410;51.046;6.980;2024-01-15T16:45:42;1.00;99.90
20504;DHT22;10410;51.046;6.980;2024-01-15T16:52:43;1.10;99.90
20504;DHT22;10410;51.046;6.980;2024-01-15T16:59:43;1.10;99.90
20504;DHT22;10410;51.046;6.980;2024-01-15T17:06:44;1.10;99.90
20504;DHT22;10410;51.046;6.980;2024-01-15T17:13:45;1.10;99.90
20504;DHT22;10410;51.046;6.980;2024-01-15T17:20:45;1.10;99.90
20504;DHT22;10410;51.046;6.980;2024-01-15T17:27:46;1.10;99.90
20504;DHT22;10410;51.046;6.980;2024-01-15T17:34:47;1.10;99.90
20504;DHT22;10410;51.046;6.980;2024-01-15T17:41:48;1.10;99.90
20504;DHT22;10410;51.046;6.980;2024-01-15T17:48:49;1.10;99.90
20504;DHT22;10410;51.046;6.980;2024-01-15T17:55:51;1.10;99.90
20504;DHT22;10410;51.046;6.980;2024-01-15T18:02:52;1.10;99.90
20504;DHT22;10410;51.046;6.980;2024-01-15T18:09:53;1.10;99.90
20504;DHT22;10410;51.046;6.980;2024-01-15T18:16:54;1.10;99.90
20504;DHT22;10410;51.046;6.980;2024-01-15T18:23:54;1.10;99.90
20504;DHT22;10410;51.046;6.980;2024-01-15T18:30:55;1.10;99.90
20504;DHT22;10410;51.046;6.980;2024-01-15T18:37:55;1.20;99.90
20504;DHT22;10410;51.046;6.980;2024-01-15T18:44:57;1.20;99.90
20504;DHT22;10410;51.046;6.980;2024-01-15T18:51:57;1.10;99.90
20504;DHT22;10410;51.046;6.980;2024-01-15T18:58:58;1.10;99.90
20504;DHT22;10410;51.046;6.980;2024-01-15T19:05:58;1.10;99.90
20504;DHT22;10410;51.046;6.980;2024-01-15T19:12:59;1.10;99.90
20504;DHT22;10410;51.046;6.980;2024-01-15T19:20:00;1.10;99.90
20504;DHT22;10410;51.046;6.980;2024-01-15T19:27:01;1.10;99.90
20504;DHT22;10410;51.046;6.980;2024-01-15T19:34:01;1.10;99.90
20504;DHT22;10410;51.046;6.980;2024-01-15T19:41:02;1.10;99.90
20504;DHT22;10410;51.046;6.980;2024-01-15T19:48:03;1.00;99.90
20504;DHT22;10410;51.046;6.980;2024-01-15T19:55:04;1.00;99.90
20504;DHT22;10410;51.046;6.980;2024-01-15T20:02:05;0.90;99.90
20504;DHT22;10410;51.046;6.980;2024-01-15T20:09:06;0.90;99.90
20504;DHT22;10410;51.046;6.980;2024-01-15T20:16:12;0.90;99.90
20504;DHT22;10410;51.046;6.980;2024-01-15T20:23:13;0.90;99.90
20504;DHT22;10410;51.046;6.980;2024-01-15T20:30:14;0.90;99.90
20504;DHT22;10410;51.046;6.980;2024-01-15T20:37:14;0.80;99.90
20504;DHT22;10410;51.046;6.980;2024-01-15T20:44:15;0.80;99.90
20504;DHT22;10410;51.046;6.980;2024-01-15T20:51:18;0.90;99.90
20504;DHT22;10410;51.046;6.980;2024-01-15T20:58:22;0.90;99.90
20504;DHT22;10410;51.046;6.980;2024-01-15T21:05:23;0.80;99.90
20504;DHT22;10410;51.046;6.980;2024-01-15T21:12:24;0.80;99.90
20504;DHT22;10410;51.046;6.980;2024-01-15T21:19:24;0.80;99.90
20504;DHT22;10410;51.046;6.980;2024-01-15T21:26:25;0.80;99.90
20504;DHT22;10410;51.046;6.980;2024-01-15T21:33:27;0.80;99.90
20504;DHT22;10410;51.046;6.980;2024-01-15T21:40:37;0.80;99.90
20504;DHT22;10410;51.046;6.980;2024-01-15T21:47:37;0.80;99.90
20504;DHT22;10410;51.046;6.980;2024-01-15T21:54:38;0.80;99.90
20504;DHT22;10410;51.046;6.980;2024-01-15T22:01:39;0.80;99.90
20504;DHT22;10410;51.046;6.980;2024-01-15T22:08:39;0.90;99.90
20504;DHT22;10410;51.046;6.980;2024-01-15T22:15:39;0.90;99.90
20504;DHT22;10410;51.046;6.980;2024-01-15T22:22:40;1.00;99.90
20504;DHT22;10410;51.046;6.980;2024-01-15T22:29:41;1.00;99.90
20504;DHT22;10410;51.046;6.980;2024-01-15T22:36:41;1.00;99.90
20504;DHT22;10410;51.046;6.980;2024-01-15T22:43:42;1.10;99.90
20504;DHT22;10410;51.046;6.980;2024-01-15T22:50:42;1.10;99.90
20504;DHT22;10410;51.046;6.980;2024-01-15T22:57:43;1.10;99.90
20504;DHT22;10410;51.046;6.980;2024-01-15T23:04:43;1.20;99.90
20504;DHT22;10410;51.046;6.980;2024-01-15T23:11:47;1.20;99.90
20504;DHT22;10410;51.046;6.980;2024-01-15T23:18:48;1.20;99.90
20504;DHT22;10410;51.046;6.980;2024-01-15T23:25:48;1.10;99.90
20504;DHT22;10410;51.046;6.980;2024-01-15T23:32:49;1.10;99.90
20504;DHT22;10410;51.046;6.980;2024-01-15T23:39:51;1.10;99.90
20504;DHT22;10410;51.046;6.980;2024-01-15T23:46:51;1.10;99.90
20504;DHT22;10410;51.046;6.980;2024-01-15T23:53:52;1.10;99.90
